createdAt,value
2019-04-26T00:00:29.972Z,71.80
2019-04-26T00:03:02.205Z,72.70
2019-04-26T00:05:35.865Z,67.40
2019-04-26T00:08:04.069Z,71.60
2019-04-26T00:11:01.901Z,75.20
2019-04-26T00:13:49.406Z,74.70
2019-04-26T00:16:25.431Z,69.10
2019-04-26T00:18:55.293Z,67.70
2019-04-26T00:21:25.435Z,68.30
2019-04-26T00:23:55.600Z,68.70
2019-04-26T00:26:26.122Z,68.40
2019-04-26T00:28:56.013Z,72.70
2019-04-26T00:31:25.749Z,74.00
2019-04-26T00:33:56.467Z,71.40
2019-04-26T00:36:26.261Z,74.30
2019-04-26T00:38:56.283Z,76.00
2019-04-26T00:41:26.712Z,71.20
2019-04-26T00:43:56.608Z,75.80
2019-04-26T00:46:29.180Z,76.50
2019-04-26T00:49:02.063Z,71.70
2019-04-26T00:51:32.802Z,75.00
2019-04-26T00:54:02.989Z,69.80
2019-04-26T00:56:33.606Z,67.90
2019-04-26T00:59:04.453Z,71.70
2019-04-26T01:01:37.423Z,74.30
2019-04-26T01:04:08.077Z,73.00
2019-04-26T01:06:40.613Z,69.50
2019-04-26T01:09:13.059Z,75.10
2019-04-26T01:11:43.580Z,75.80
2019-04-26T01:14:15.494Z,75.30
2019-04-26T01:16:46.703Z,75.70
2019-04-26T01:19:18.951Z,76.20
2019-04-26T01:21:53.047Z,78.20
2019-04-26T01:24:25.440Z,78.40
2019-04-26T01:26:58.930Z,71.70
2019-04-26T01:29:30.738Z,72.30
2019-04-26T01:32:06.317Z,77.00
2019-04-26T01:34:37.487Z,76.40
2019-04-26T01:37:07.996Z,72.10
2019-04-26T01:39:40.307Z,73.60
2019-04-26T01:42:24.242Z,74.50
2019-04-26T01:45:16.494Z,71.80
2019-04-26T01:47:48.245Z,77.00
2019-04-26T01:50:19.349Z,70.30
2019-04-26T01:52:51.021Z,69.10
2019-04-26T01:55:22.922Z,70.10
2019-04-26T01:57:54.118Z,77.20
2019-04-26T02:00:44.327Z,78.00
2019-04-26T02:03:19.314Z,78.40
2019-04-26T02:05:50.045Z,77.50
2019-04-26T02:08:22.087Z,80.80
2019-04-26T02:10:53.370Z,81.50
2019-04-26T02:13:28.863Z,77.40
2019-04-26T02:15:58.833Z,71.20
2019-04-26T02:18:29.679Z,69.80
2019-04-26T02:21:29.948Z,69.00
2019-04-26T02:24:05.117Z,68.60
2019-04-26T02:26:39.494Z,71.70
2019-04-26T02:29:15.196Z,79.80
2019-04-26T02:31:48.372Z,79.80
2019-04-26T02:34:18.280Z,78.80
2019-04-26T02:36:58.010Z,74.70
2019-04-26T02:39:23.090Z,70.60
2019-04-26T02:41:55.690Z,69.70
2019-04-26T02:44:31.321Z,69.30
2019-04-26T02:47:41.025Z,78.80
2019-04-26T02:50:17.495Z,70.40
2019-04-26T02:53:11.730Z,72.30
2019-04-26T02:56:18.506Z,68.90
2019-04-26T02:59:07.787Z,68.90
2019-04-26T03:01:38.722Z,72.00
2019-04-26T03:04:09.960Z,69.00
2019-04-26T03:06:43.094Z,68.80
2019-04-26T03:09:15.492Z,68.70
2019-04-26T03:11:48.372Z,68.70
2019-04-26T03:14:44.530Z,68.70
2019-04-26T03:17:27.277Z,68.50
2019-04-26T03:20:04.022Z,68.50
2019-04-26T03:22:46.313Z,76.90
2019-04-26T03:25:51.475Z,69.90
2019-04-26T03:28:39.269Z,68.90
2019-04-26T03:31:39.178Z,68.90
2019-04-26T03:34:26.534Z,68.60
2019-04-26T03:38:00.115Z,69.80
2019-04-26T03:40:45.823Z,68.90
2019-04-26T03:44:06.788Z,68.60
2019-04-26T03:47:04.011Z,68.90
2019-04-26T03:49:54.769Z,68.50
2019-04-26T03:53:18.832Z,69.10
2019-04-26T03:56:42.246Z,68.90
2019-04-26T03:59:46.349Z,68.70
2019-04-26T04:02:43.549Z,69.00
2019-04-26T04:05:37.883Z,68.90
2019-04-26T04:08:14.928Z,69.70
2019-04-26T04:10:54.035Z,70.30
2019-04-26T04:13:46.055Z,70.60
2019-04-26T04:16:46.734Z,77.70
2019-04-26T04:20:05.605Z,76.50
2019-04-26T04:22:41.767Z,75.90
2019-04-26T04:25:15.529Z,74.20
2019-04-26T04:28:03.155Z,74.20
2019-04-26T04:31:05.353Z,77.30
2019-04-26T04:34:14.158Z,76.30
2019-04-26T04:36:50.563Z,79.90
2019-04-26T04:39:32.312Z,85.90
2019-04-26T04:42:37.591Z,78.50
2019-04-26T04:45:48.058Z,76.80
2019-04-26T04:48:50.281Z,79.70
2019-04-26T04:51:44.896Z,78.20
2019-04-26T04:54:29.341Z,77.70
2019-04-26T04:57:20.798Z,83.50
2019-04-26T05:00:11.552Z,83.20
2019-04-26T05:03:09.665Z,78.40
2019-04-26T05:06:07.648Z,80.90
2019-04-26T05:08:55.451Z,77.90
2019-04-26T05:11:34.910Z,80.60
2019-04-26T05:14:17.134Z,83.80
2019-04-26T05:17:30.509Z,86.70
2019-04-26T05:20:31.087Z,79.70
2019-04-26T05:23:42.883Z,81.70
2019-04-26T05:27:30.213Z,81.10
2019-04-26T05:30:58.744Z,80.30
2019-04-26T05:34:06.086Z,79.80
2019-04-26T05:37:12.569Z,81.50
2019-04-26T05:40:12.033Z,80.50
2019-04-26T05:43:45.723Z,79.80
2019-04-26T05:47:25.545Z,79.10
2019-04-26T05:50:39.415Z,80.00
2019-04-26T05:54:06.719Z,79.40
2019-04-26T05:57:10.768Z,81.60
2019-04-26T06:00:42.530Z,81.20
2019-04-26T06:03:33.433Z,80.10
2019-04-26T06:06:33.156Z,83.50
2019-04-26T06:09:52.840Z,80.50
2019-04-26T06:12:31.829Z,79.70
2019-04-26T06:15:43.350Z,83.00
2019-04-26T06:18:43.647Z,79.70
2019-04-26T06:21:27.006Z,80.80
2019-04-26T06:24:39.687Z,81.40
2019-04-26T06:27:56.404Z,81.50
2019-04-26T06:30:45.254Z,81.20
2019-04-26T06:33:39.675Z,82.80
2019-04-26T06:36:17.321Z,79.20
2019-04-26T06:39:18.390Z,78.10
2019-04-26T06:42:46.578Z,76.70
2019-04-26T06:46:17.224Z,78.50
2019-04-26T06:49:23.007Z,78.00
2019-04-26T06:52:08.604Z,80.60
2019-04-26T06:54:57.977Z,79.30
2019-04-26T06:58:13.086Z,81.70
2019-04-26T07:01:11.243Z,80.70
2019-04-26T07:04:22.066Z,79.10
2019-04-26T07:07:51.150Z,79.40
2019-04-26T07:11:00.660Z,77.90
2019-04-26T07:14:00.622Z,76.50
2019-04-26T07:16:38.530Z,77.70
2019-04-26T07:19:17.043Z,77.80
2019-04-26T07:22:35.639Z,79.20
2019-04-26T07:25:57.727Z,78.30
2019-04-26T07:29:07.127Z,78.00
2019-04-26T07:31:53.789Z,77.30
2019-04-26T07:34:55.801Z,78.20
2019-04-26T07:38:04.820Z,79.40
2019-04-26T07:41:32.600Z,78.50
2019-04-26T07:44:28.329Z,78.00
2019-04-26T07:47:24.134Z,77.50
2019-04-26T07:50:31.990Z,76.70
2019-04-26T07:53:42.712Z,77.00
2019-04-26T07:56:41.693Z,75.90
2019-04-26T07:59:48.000Z,74.10
2019-04-26T08:03:02.484Z,73.60
2019-04-26T08:05:50.883Z,78.20
2019-04-26T08:08:23.694Z,76.20
2019-04-26T08:11:11.425Z,76.10
2019-04-26T08:13:57.554Z,71.20
2019-04-26T08:17:00.998Z,72.40
2019-04-26T08:19:33.921Z,73.10
2019-04-26T08:22:18.001Z,75.20
2019-04-26T08:24:41.370Z,74.30
2019-04-26T08:27:23.640Z,72.40
2019-04-26T08:30:03.251Z,70.20
2019-04-26T08:32:35.239Z,71.90
2019-04-26T08:35:28.978Z,70.70
2019-04-26T08:38:07.948Z,71.30
2019-04-26T08:40:38.569Z,74.30
2019-04-26T08:43:31.920Z,74.70
2019-04-26T08:46:27.010Z,71.30
2019-04-26T08:49:13.164Z,75.70
2019-04-26T08:51:45.300Z,71.30
2019-04-26T08:54:21.598Z,68.00
2019-04-26T08:56:59.027Z,67.00
2019-04-26T08:59:32.083Z,69.10
2019-04-26T09:02:29.356Z,73.40
2019-04-26T09:05:37.995Z,71.50
2019-04-26T09:08:09.763Z,72.40
2019-04-26T09:10:43.214Z,67.70
2019-04-26T09:13:17.120Z,67.00
2019-04-26T09:16:20.161Z,72.60
2019-04-26T09:18:54.293Z,69.30
2019-04-26T09:21:37.231Z,74.30
2019-04-26T09:24:31.984Z,67.30
2019-04-26T09:27:10.705Z,65.40
2019-04-26T09:30:17.591Z,66.90
2019-04-26T09:32:51.659Z,66.00
2019-04-26T09:35:21.429Z,64.20
2019-04-26T09:37:51.566Z,65.00
2019-04-26T09:40:22.960Z,67.70
2019-04-26T09:43:10.372Z,66.70
2019-04-26T09:46:07.767Z,67.80
2019-04-26T09:48:42.350Z,67.70
2019-04-26T09:51:12.091Z,73.50
2019-04-26T09:53:43.440Z,67.60
2019-04-26T09:56:13.516Z,64.80
2019-04-26T09:58:43.890Z,64.00
2019-04-26T10:01:13.919Z,70.10
2019-04-26T10:03:43.668Z,68.00
2019-04-26T10:06:13.534Z,64.00
2019-04-26T10:08:46.723Z,68.30
2019-04-26T10:11:16.893Z,65.90
2019-04-26T10:14:14.894Z,63.70
2019-04-26T10:16:54.005Z,64.40
2019-04-26T10:19:34.113Z,63.70
2019-04-26T10:22:03.940Z,62.90
2019-04-26T10:24:35.654Z,63.30
2019-04-26T10:27:05.629Z,64.70
2019-04-26T10:29:35.811Z,64.10
2019-04-26T10:32:05.545Z,66.60
2019-04-26T10:34:37.877Z,70.20
2019-04-26T10:37:08.069Z,68.40
2019-04-26T10:39:37.838Z,70.20
2019-04-26T10:42:07.733Z,69.50
2019-04-26T10:44:39.820Z,71.80
2019-04-26T10:47:09.529Z,71.10
2019-04-26T10:49:43.953Z,71.90
2019-04-26T10:52:25.210Z,71.20
2019-04-26T10:55:07.501Z,81.20
2019-04-26T10:57:39.960Z,78.40
2019-04-26T11:00:17.993Z,72.50
2019-04-26T11:02:47.630Z,72.10
2019-04-26T11:05:19.236Z,71.50
2019-04-26T11:07:48.663Z,75.10
2019-04-26T11:10:18.424Z,79.50
2019-04-26T11:12:48.225Z,82.20
2019-04-26T11:15:18.449Z,82.20
2019-04-26T11:17:49.960Z,78.50
2019-04-26T11:20:20.469Z,77.20
2019-04-26T11:22:51.038Z,78.20
2019-04-26T11:25:20.774Z,77.30
2019-04-26T11:27:50.736Z,75.30
2019-04-26T11:30:21.423Z,75.00
2019-04-26T11:32:51.786Z,79.40
2019-04-26T11:35:21.495Z,82.10
2019-04-26T11:37:55.220Z,79.70
2019-04-26T11:40:44.355Z,80.20
2019-04-26T11:43:15.773Z,77.70
2019-04-26T11:45:45.375Z,79.50
2019-04-26T11:48:16.443Z,76.90
2019-04-26T11:50:48.221Z,78.50
2019-04-26T11:53:18.413Z,81.60
2019-04-26T11:55:48.066Z,83.20
2019-04-26T11:58:22.423Z,79.80
2019-04-26T12:00:54.636Z,75.50
2019-04-26T12:03:25.922Z,76.30
2019-04-26T12:06:04.172Z,75.70
2019-04-26T12:08:40.624Z,75.40
2019-04-26T12:11:18.192Z,76.50
2019-04-26T12:13:42.304Z,77.00
2019-04-26T12:16:14.524Z,77.20
2019-04-26T12:18:44.183Z,79.00
2019-04-26T12:21:15.946Z,76.60
2019-04-26T12:23:46.378Z,74.60
2019-04-26T12:26:17.313Z,74.70
2019-04-26T12:28:48.636Z,74.10
2019-04-26T12:31:19.004Z,74.50
2019-04-26T12:33:49.026Z,75.20
2019-04-26T12:36:18.993Z,75.20
2019-04-26T12:38:49.160Z,74.20
2019-04-26T12:41:25.318Z,73.30
2019-04-26T12:43:54.615Z,72.70
2019-04-26T12:46:38.287Z,72.50
2019-04-26T12:49:09.807Z,72.50
2019-04-26T12:51:48.751Z,72.30
2019-04-26T12:54:21.867Z,72.00
2019-04-26T12:56:51.689Z,72.10
2019-04-26T12:59:22.379Z,71.70
2019-04-26T13:02:04.950Z,71.60
2019-04-26T13:04:35.506Z,71.80
2019-04-26T13:07:06.936Z,71.60
2019-04-26T13:09:37.435Z,73.70
2019-04-26T13:12:21.736Z,74.10
2019-04-26T13:15:00.924Z,72.90
2019-04-26T13:17:35.638Z,72.50
2019-04-26T13:20:07.037Z,72.00
2019-04-26T13:22:45.862Z,71.40
2019-04-26T13:25:15.495Z,71.60
2019-04-26T13:27:41.676Z,71.50
2019-04-26T13:30:14.639Z,71.10
2019-04-26T13:32:44.576Z,71.10
2019-04-26T13:35:14.863Z,70.50
2019-04-26T13:37:44.853Z,74.60
2019-04-26T13:40:14.987Z,77.40
2019-04-26T13:42:47.477Z,75.90
2019-04-26T13:45:38.436Z,77.20
2019-04-26T13:48:29.358Z,79.40
2019-04-26T13:51:05.661Z,76.40
2019-04-26T13:53:35.940Z,73.80
2019-04-26T13:56:06.068Z,72.80
2019-04-26T13:58:37.719Z,72.00
2019-04-26T14:01:08.338Z,71.60
2019-04-26T14:03:38.464Z,71.60
2019-04-26T14:06:09.535Z,71.50
2019-04-26T14:08:39.406Z,71.30
2019-04-26T14:11:09.372Z,71.20
2019-04-26T14:13:39.383Z,71.40
2019-04-26T14:16:09.871Z,71.50
2019-04-26T14:18:40.743Z,71.60
2019-04-26T14:21:11.272Z,71.60
2019-04-26T14:23:49.509Z,71.30
2019-04-26T14:26:28.428Z,71.40
2019-04-26T14:28:59.674Z,71.50
2019-04-26T14:31:30.134Z,71.80
2019-04-26T14:34:01.306Z,71.80
2019-04-26T14:36:32.647Z,71.70
2019-04-26T14:39:06.030Z,71.90
2019-04-26T14:41:34.111Z,71.90
2019-04-26T14:44:14.846Z,71.80
2019-04-26T14:46:47.997Z,72.10
2019-04-26T14:49:08.088Z,72.00
2019-04-26T14:51:40.546Z,71.90
2019-04-26T14:54:16.438Z,72.40
2019-04-26T14:56:52.280Z,72.10
2019-04-26T14:59:39.446Z,72.40
2019-04-26T15:02:28.156Z,72.50
2019-04-26T15:05:09.201Z,72.00
2019-04-26T15:07:48.554Z,72.40
2019-04-26T15:10:11.823Z,72.20
2019-04-26T15:12:46.948Z,72.10
2019-04-26T15:15:14.157Z,72.00
2019-04-26T15:17:44.124Z,72.30
2019-04-26T15:20:16.774Z,73.00
2019-04-26T15:22:48.729Z,72.60
2019-04-26T15:25:17.779Z,72.50
2019-04-26T15:27:48.176Z,72.70
2019-04-26T15:30:18.112Z,72.80
2019-04-26T15:32:48.359Z,72.60
2019-04-26T15:35:18.714Z,72.50
2019-04-26T15:37:48.468Z,72.70
2019-04-26T15:40:52.655Z,73.00
2019-04-26T15:43:32.777Z,73.30
2019-04-26T15:46:20.333Z,73.10
2019-04-26T15:48:58.911Z,72.60
2019-04-26T15:51:33.237Z,72.70
2019-04-26T15:54:03.291Z,73.10
2019-04-26T15:56:33.204Z,73.00
2019-04-26T15:59:03.564Z,73.20
2019-04-26T16:01:34.027Z,73.00
2019-04-26T16:04:06.636Z,73.10
2019-04-26T16:06:41.431Z,73.00
2019-04-26T16:09:13.941Z,73.10
2019-04-26T16:11:42.831Z,73.60
2019-04-26T16:14:13.749Z,73.40
2019-04-26T16:16:44.001Z,73.70
2019-04-26T16:19:14.222Z,73.40
2019-04-26T16:21:44.421Z,73.80
2019-04-26T16:24:14.999Z,73.80
2019-04-26T16:26:55.689Z,73.20
2019-04-26T16:29:42.467Z,73.20
2019-04-26T16:32:29.848Z,73.10
2019-04-26T16:34:59.976Z,73.10
2019-04-26T16:37:30.194Z,73.50
2019-04-26T16:40:00.321Z,73.60
2019-04-26T16:42:30.669Z,73.40
2019-04-26T16:45:04.611Z,73.50
2019-04-26T16:47:35.427Z,73.70
2019-04-26T16:50:05.455Z,73.10
2019-04-26T16:52:42.337Z,73.50
2019-04-26T16:55:15.383Z,78.30
2019-04-26T16:57:44.014Z,73.30
2019-04-26T17:00:15.798Z,81.60
2019-04-26T17:02:44.049Z,83.70
2019-04-26T17:05:21.023Z,87.70
2019-04-26T17:07:58.818Z,91.80
2019-04-26T17:10:37.903Z,85.90
2019-04-26T17:13:07.799Z,78.00
2019-04-26T17:15:38.047Z,75.90
2019-04-26T17:18:08.257Z,74.50
2019-04-26T17:20:40.549Z,75.00
2019-04-26T17:23:29.840Z,74.20
2019-04-26T17:26:24.420Z,77.50
2019-04-26T17:28:55.629Z,74.70
2019-04-26T17:31:57.892Z,74.80
2019-04-26T17:34:59.569Z,74.60
2019-04-26T17:37:30.517Z,74.20
2019-04-26T17:40:01.559Z,74.10
2019-04-26T17:42:36.439Z,74.00
2019-04-26T17:45:06.811Z,74.50
2019-04-26T17:47:39.881Z,74.30
2019-04-26T17:50:12.942Z,76.10
2019-04-26T17:52:44.219Z,75.10
2019-04-26T17:55:15.239Z,74.50
2019-04-26T17:57:50.660Z,74.30
2019-04-26T18:00:28.431Z,74.50
2019-04-26T18:02:59.285Z,74.60
2019-04-26T18:05:41.959Z,74.30
2019-04-26T18:08:33.877Z,74.50
2019-04-26T18:10:48.724Z,75.00
2019-04-26T18:13:18.581Z,74.80
2019-04-26T18:15:49.925Z,76.80
2019-04-26T18:18:38.463Z,74.70
2019-04-26T18:21:27.881Z,75.40
2019-04-26T18:23:57.915Z,75.00
2019-04-26T18:26:28.636Z,75.00
2019-04-26T18:28:58.600Z,74.70
2019-04-26T18:31:30.169Z,74.70
2019-04-26T18:34:01.840Z,74.60
2019-04-26T18:36:32.139Z,74.80
2019-04-26T18:39:03.979Z,74.90
2019-04-26T18:41:34.027Z,74.50
2019-04-26T18:44:03.885Z,74.60
2019-04-26T18:46:49.599Z,74.70
2019-04-26T18:49:22.773Z,74.90
2019-04-26T18:51:54.665Z,74.80
2019-04-26T18:54:41.445Z,74.60
2019-04-26T18:57:15.614Z,74.70
2019-04-26T18:59:44.769Z,75.00
2019-04-26T19:02:25.385Z,77.30
2019-04-26T19:05:03.716Z,76.00
2019-04-26T19:07:36.695Z,75.30
2019-04-26T19:10:14.472Z,75.40
2019-04-26T19:12:46.118Z,75.20
2019-04-26T19:15:25.590Z,75.00
2019-04-26T19:18:12.479Z,77.60
2019-04-26T19:21:14.374Z,75.60
2019-04-26T19:23:44.554Z,75.40
2019-04-26T19:26:31.756Z,75.30
2019-04-26T19:28:53.555Z,75.30
2019-04-26T19:31:27.128Z,75.10
2019-04-26T19:33:56.528Z,75.30
2019-04-26T19:36:29.311Z,75.50
2019-04-26T19:39:00.895Z,75.10
2019-04-26T19:41:31.523Z,75.20
2019-04-26T19:44:01.922Z,76.00
2019-04-26T19:46:49.779Z,75.40
2019-04-26T19:49:36.764Z,79.00
2019-04-26T19:52:15.607Z,76.40
2019-04-26T19:54:53.040Z,75.90
2019-04-26T19:57:39.185Z,75.90
2019-04-26T20:00:10.081Z,75.80
2019-04-26T20:02:41.990Z,75.40
2019-04-26T20:05:12.150Z,75.70
2019-04-26T20:07:42.433Z,76.10
2019-04-26T20:10:23.320Z,76.10
2019-04-26T20:12:53.407Z,75.80
2019-04-26T20:15:27.936Z,75.70
2019-04-26T20:17:59.685Z,75.70
2019-04-26T20:20:27.954Z,76.00
2019-04-26T20:23:03.385Z,76.10
2019-04-26T20:25:31.961Z,76.30
2019-04-26T20:28:05.496Z,76.40
2019-04-26T20:30:57.939Z,76.50
2019-04-26T20:33:31.319Z,76.30
2019-04-26T20:36:03.347Z,76.30
2019-04-26T20:38:35.855Z,76.20
2019-04-26T20:41:03.689Z,76.40
2019-04-26T20:43:36.313Z,76.50
2019-04-26T20:46:14.003Z,76.70
2019-04-26T20:48:39.018Z,76.30
2019-04-26T20:51:10.892Z,76.60
2019-04-26T20:53:43.704Z,76.50
2019-04-26T20:56:18.160Z,76.60
2019-04-26T20:58:47.139Z,76.50
2019-04-26T21:01:18.214Z,76.50
2019-04-26T21:03:48.246Z,76.60
2019-04-26T21:06:18.763Z,76.90
2019-04-26T21:08:48.782Z,77.00
2019-04-26T21:11:18.792Z,76.80
2019-04-26T21:13:51.788Z,76.90
2019-04-26T21:16:22.170Z,76.70
2019-04-26T21:18:52.483Z,76.60
2019-04-26T21:21:22.450Z,76.60
2019-04-26T21:23:52.834Z,76.60
2019-04-26T21:26:46.585Z,76.40
2019-04-26T21:29:28.525Z,76.90
2019-04-26T21:32:10.053Z,77.10
2019-04-26T21:34:44.904Z,77.40
2019-04-26T21:37:37.973Z,77.20
2019-04-26T21:40:23.191Z,77.10
2019-04-26T21:42:55.329Z,77.00
2019-04-26T21:45:28.473Z,76.90
2019-04-26T21:47:57.814Z,76.80
2019-04-26T21:50:29.083Z,77.00
2019-04-26T21:53:03.376Z,77.20
2019-04-26T21:55:35.256Z,77.20
2019-04-26T21:58:04.984Z,77.10
2019-04-26T22:01:04.809Z,77.40
2019-04-26T22:03:35.777Z,77.20
2019-04-26T22:06:05.853Z,77.20
2019-04-26T22:08:38.650Z,77.40
2019-04-26T22:11:08.550Z,77.70
2019-04-26T22:13:47.537Z,77.40
2019-04-26T22:16:34.123Z,77.20
2019-04-26T22:19:09.352Z,77.40
2019-04-26T22:21:46.869Z,77.20
2019-04-26T22:24:30.926Z,77.50
2019-04-26T22:27:01.403Z,77.20
2019-04-26T22:29:36.344Z,77.20
2019-04-26T22:32:11.579Z,77.30
2019-04-26T22:34:46.042Z,77.30
2019-04-26T22:37:23.157Z,77.40
2019-04-26T22:39:46.680Z,77.50
2019-04-26T22:42:18.208Z,77.50
2019-04-26T22:44:54.620Z,77.60
2019-04-26T22:47:33.887Z,77.40
2019-04-26T22:50:03.882Z,77.70
2019-04-26T22:52:34.094Z,77.90
2019-04-26T22:55:05.463Z,77.40
2019-04-26T22:57:35.688Z,77.80
2019-04-26T23:00:06.268Z,77.70
2019-04-26T23:02:36.558Z,77.40
2019-04-26T23:05:07.041Z,77.40
2019-04-26T23:07:37.275Z,77.40
2019-04-26T23:10:13.015Z,77.40
2019-04-26T23:13:04.658Z,77.50
2019-04-26T23:15:48.303Z,77.50
2019-04-26T23:18:27.306Z,77.90
2019-04-26T23:21:00.480Z,78.80
2019-04-26T23:23:30.652Z,78.00
2019-04-26T23:26:02.362Z,78.00
2019-04-26T23:28:36.901Z,78.70
2019-04-26T23:31:08.169Z,78.10
2019-04-26T23:33:38.851Z,77.90
2019-04-26T23:36:09.450Z,77.90
2019-04-26T23:38:39.306Z,78.70
2019-04-26T23:41:10.696Z,77.80
2019-04-26T23:43:40.802Z,78.10
2019-04-26T23:46:10.867Z,77.90
2019-04-26T23:48:42.739Z,77.90
2019-04-26T23:51:12.834Z,78.00
2019-04-26T23:53:43.022Z,78.10
2019-04-26T23:56:16.159Z,78.00
2019-04-26T23:58:45.715Z,78.10
